sensor_id;sensor_type;location;lat;lon;timestamp;P1;durP1;ratioP1;P2;durP2;ratioP2
1759;SDS011;877;46.266;20.062;2022-08-19T00:01:05;12.60;;;8.30;;
1759;SDS011;877;46.266;20.062;2022-08-19T00:06:36;13.63;;;8.30;;
1759;SDS011;877;46.266;20.062;2022-08-19T00:12:06;10.07;;;8.80;;
1759;SDS011;877;46.266;20.062;2022-08-19T00:17:36;9.93;;;8.73;;
1759;SDS011;877;46.266;20.062;2022-08-19T00:23:06;11.13;;;8.63;;
1759;SDS011;877;46.266;20.062;2022-08-19T00:28:36;12.60;;;9.00;;
1759;SDS011;877;46.266;20.062;2022-08-19T00:34:06;9.70;;;8.60;;
1759;SDS011;877;46.266;20.062;2022-08-19T00:39:36;9.80;;;8.80;;
1759;SDS011;877;46.266;20.062;2022-08-19T00:45:19;8.90;;;8.00;;
1759;SDS011;877;46.266;20.062;2022-08-19T00:50:49;13.00;;;8.77;;
1759;SDS011;877;46.266;20.062;2022-08-19T00:56:19;16.03;;;9.37;;
1759;SDS011;877;46.266;20.062;2022-08-19T01:01:49;9.50;;;7.73;;
1759;SDS011;877;46.266;20.062;2022-08-19T01:07:19;9.87;;;8.87;;
1759;SDS011;877;46.266;20.062;2022-08-19T01:12:48;14.93;;;8.83;;
1759;SDS011;877;46.266;20.062;2022-08-19T01:18:18;11.50;;;8.80;;
1759;SDS011;877;46.266;20.062;2022-08-19T01:23:48;11.20;;;9.33;;
1759;SDS011;877;46.266;20.062;2022-08-19T01:29:18;10.50;;;9.43;;
1759;SDS011;877;46.266;20.062;2022-08-19T01:34:48;10.37;;;9.27;;
1759;SDS011;877;46.266;20.062;2022-08-19T01:40:18;9.93;;;8.60;;
1759;SDS011;877;46.266;20.062;2022-08-19T01:45:48;13.10;;;9.37;;
1759;SDS011;877;46.266;20.062;2022-08-19T01:51:19;13.53;;;8.77;;
1759;SDS011;877;46.266;20.062;2022-08-19T01:56:49;16.60;;;8.73;;
1759;SDS011;877;46.266;20.062;2022-08-19T02:02:19;12.33;;;9.97;;
1759;SDS011;877;46.266;20.062;2022-08-19T02:07:49;10.37;;;9.00;;
1759;SDS011;877;46.266;20.062;2022-08-19T02:13:19;11.50;;;9.23;;
1759;SDS011;877;46.266;20.062;2022-08-19T02:18:49;10.83;;;8.90;;
1759;SDS011;877;46.266;20.062;2022-08-19T02:24:18;14.03;;;9.20;;
1759;SDS011;877;46.266;20.062;2022-08-19T02:29:49;11.53;;;9.50;;
1759;SDS011;877;46.266;20.062;2022-08-19T02:35:18;12.40;;;9.73;;
1759;SDS011;877;46.266;20.062;2022-08-19T02:40:49;12.30;;;9.53;;
1759;SDS011;877;46.266;20.062;2022-08-19T02:46:24;14.90;;;10.57;;
1759;SDS011;877;46.266;20.062;2022-08-19T02:51:55;15.20;;;9.57;;
1759;SDS011;877;46.266;20.062;2022-08-19T02:57:24;13.50;;;10.40;;
1759;SDS011;877;46.266;20.062;2022-08-19T03:02:54;11.80;;;10.37;;
1759;SDS011;877;46.266;20.062;2022-08-19T03:08:24;11.80;;;10.00;;
1759;SDS011;877;46.266;20.062;2022-08-19T03:13:54;12.50;;;10.10;;
1759;SDS011;877;46.266;20.062;2022-08-19T03:19:23;12.73;;;9.73;;
1759;SDS011;877;46.266;20.062;2022-08-19T03:24:53;12.50;;;9.93;;
1759;SDS011;877;46.266;20.062;2022-08-19T03:30:23;13.67;;;9.83;;
1759;SDS011;877;46.266;20.062;2022-08-19T03:36:06;10.83;;;9.73;;
1759;SDS011;877;46.266;20.062;2022-08-19T03:41:40;17.37;;;9.37;;
1759;SDS011;877;46.266;20.062;2022-08-19T03:47:09;11.73;;;10.50;;
1759;SDS011;877;46.266;20.062;2022-08-19T03:52:47;10.93;;;9.73;;
1759;SDS011;877;46.266;20.062;2022-08-19T03:58:17;11.73;;;9.27;;
1759;SDS011;877;46.266;20.062;2022-08-19T04:03:46;15.03;;;10.17;;
1759;SDS011;877;46.266;20.062;2022-08-19T04:09:16;14.90;;;9.80;;
1759;SDS011;877;46.266;20.062;2022-08-19T04:14:46;13.20;;;9.80;;
1759;SDS011;877;46.266;20.062;2022-08-19T04:20:16;15.00;;;9.60;;
1759;SDS011;877;46.266;20.062;2022-08-19T04:25:46;14.40;;;9.90;;
1759;SDS011;877;46.266;20.062;2022-08-19T04:31:17;11.57;;;8.80;;
1759;SDS011;877;46.266;20.062;2022-08-19T04:36:47;16.00;;;9.20;;
1759;SDS011;877;46.266;20.062;2022-08-19T04:42:19;15.90;;;9.60;;
1759;SDS011;877;46.266;20.062;2022-08-19T04:48:07;16.00;;;10.10;;
1759;SDS011;877;46.266;20.062;2022-08-19T04:53:37;13.73;;;8.33;;
1759;SDS011;877;46.266;20.062;2022-08-19T04:59:07;14.70;;;8.50;;
1759;SDS011;877;46.266;20.062;2022-08-19T05:04:36;14.70;;;8.47;;
1759;SDS011;877;46.266;20.062;2022-08-19T05:10:07;14.47;;;9.77;;
1759;SDS011;877;46.266;20.062;2022-08-19T05:15:37;20.40;;;9.50;;
1759;SDS011;877;46.266;20.062;2022-08-19T05:21:07;16.00;;;10.70;;
1759;SDS011;877;46.266;20.062;2022-08-19T05:26:55;10.20;;;8.50;;
1759;SDS011;877;46.266;20.062;2022-08-19T05:32:25;10.47;;;8.50;;
1759;SDS011;877;46.266;20.062;2022-08-19T05:37:55;15.60;;;9.10;;
1759;SDS011;877;46.266;20.062;2022-08-19T05:43:25;26.07;;;10.47;;
1759;SDS011;877;46.266;20.062;2022-08-19T05:49:00;10.27;;;8.40;;
1759;SDS011;877;46.266;20.062;2022-08-19T05:54:30;10.23;;;8.70;;
1759;SDS011;877;46.266;20.062;2022-08-19T06:00:00;17.87;;;10.47;;
1759;SDS011;877;46.266;20.062;2022-08-19T06:05:30;12.30;;;8.80;;
1759;SDS011;877;46.266;20.062;2022-08-19T06:16:42;12.53;;;9.07;;
1759;SDS011;877;46.266;20.062;2022-08-19T06:22:12;11.53;;;8.67;;
1759;SDS011;877;46.266;20.062;2022-08-19T06:27:42;14.00;;;8.90;;
1759;SDS011;877;46.266;20.062;2022-08-19T06:33:12;16.50;;;9.80;;
1759;SDS011;877;46.266;20.062;2022-08-19T06:38:41;20.87;;;9.70;;
1759;SDS011;877;46.266;20.062;2022-08-19T06:44:11;13.30;;;9.30;;
1759;SDS011;877;46.266;20.062;2022-08-19T06:49:41;16.43;;;9.00;;
1759;SDS011;877;46.266;20.062;2022-08-19T06:55:11;15.77;;;9.60;;
1759;SDS011;877;46.266;20.062;2022-08-19T07:00:41;15.47;;;8.50;;
1759;SDS011;877;46.266;20.062;2022-08-19T07:06:11;13.37;;;8.73;;
1759;SDS011;877;46.266;20.062;2022-08-19T07:11:43;12.77;;;9.27;;
1759;SDS011;877;46.266;20.062;2022-08-19T07:17:14;16.83;;;7.83;;
1759;SDS011;877;46.266;20.062;2022-08-19T07:22:44;14.30;;;9.30;;
1759;SDS011;877;46.266;20.062;2022-08-19T07:28:13;11.30;;;7.40;;
1759;SDS011;877;46.266;20.062;2022-08-19T07:33:43;17.77;;;9.30;;
1759;SDS011;877;46.266;20.062;2022-08-19T07:39:15;12.67;;;9.30;;
1759;SDS011;877;46.266;20.062;2022-08-19T07:44:45;16.77;;;8.63;;
1759;SDS011;877;46.266;20.062;2022-08-19T07:50:15;14.77;;;7.97;;
1759;SDS011;877;46.266;20.062;2022-08-19T07:55:47;12.60;;;7.80;;
1759;SDS011;877;46.266;20.062;2022-08-19T08:01:18;11.03;;;8.20;;
1759;SDS011;877;46.266;20.062;2022-08-19T08:06:48;13.47;;;7.77;;
1759;SDS011;877;46.266;20.062;2022-08-19T08:12:38;12.10;;;8.80;;
1759;SDS011;877;46.266;20.062;2022-08-19T08:18:10;11.63;;;7.93;;
1759;SDS011;877;46.266;20.062;2022-08-19T08:23:39;10.03;;;8.00;;
1759;SDS011;877;46.266;20.062;2022-08-19T08:29:10;10.23;;;7.43;;
1759;SDS011;877;46.266;20.062;2022-08-19T08:34:41;9.20;;;7.23;;
1759;SDS011;877;46.266;20.062;2022-08-19T08:45:46;10.27;;;7.17;;
1759;SDS011;877;46.266;20.062;2022-08-19T08:51:20;9.90;;;7.00;;
1759;SDS011;877;46.266;20.062;2022-08-19T08:56:51;11.43;;;7.30;;
1759;SDS011;877;46.266;20.062;2022-08-19T09:02:22;8.23;;;7.10;;
1759;SDS011;877;46.266;20.062;2022-08-19T09:19:05;8.80;;;6.13;;
1759;SDS011;877;46.266;20.062;2022-08-19T09:24:35;8.70;;;5.40;;
1759;SDS011;877;46.266;20.062;2022-08-19T09:30:05;8.63;;;5.50;;
1759;SDS011;877;46.266;20.062;2022-08-19T09:35:36;7.47;;;5.10;;
1759;SDS011;877;46.266;20.062;2022-08-19T09:41:10;8.67;;;4.97;;
1759;SDS011;877;46.266;20.062;2022-08-19T09:46:42;8.60;;;5.57;;
1759;SDS011;877;46.266;20.062;2022-08-19T09:52:11;13.53;;;5.70;;
1759;SDS011;877;46.266;20.062;2022-08-19T09:57:41;11.37;;;6.00;;
1759;SDS011;877;46.266;20.062;2022-08-19T10:03:11;9.93;;;5.10;;
1759;SDS011;877;46.266;20.062;2022-08-19T10:08:41;11.63;;;5.03;;
1759;SDS011;877;46.266;20.062;2022-08-19T10:14:11;10.40;;;5.30;;
1759;SDS011;877;46.266;20.062;2022-08-19T10:19:40;8.27;;;4.93;;
1759;SDS011;877;46.266;20.062;2022-08-19T10:25:10;12.50;;;5.33;;
1759;SDS011;877;46.266;20.062;2022-08-19T10:30:40;10.67;;;5.10;;
1759;SDS011;877;46.266;20.062;2022-08-19T10:36:11;10.13;;;5.90;;
1759;SDS011;877;46.266;20.062;2022-08-19T10:41:43;13.20;;;4.80;;
1759;SDS011;877;46.266;20.062;2022-08-19T10:47:13;9.60;;;4.73;;
1759;SDS011;877;46.266;20.062;2022-08-19T10:52:45;7.53;;;4.90;;
1759;SDS011;877;46.266;20.062;2022-08-19T10:58:15;11.90;;;4.80;;
1759;SDS011;877;46.266;20.062;2022-08-19T11:03:45;11.63;;;5.60;;
1759;SDS011;877;46.266;20.062;2022-08-19T11:09:16;12.43;;;4.70;;
1759;SDS011;877;46.266;20.062;2022-08-19T11:14:45;9.47;;;4.30;;
1759;SDS011;877;46.266;20.062;2022-08-19T11:20:17;11.17;;;4.60;;
1759;SDS011;877;46.266;20.062;2022-08-19T11:25:47;6.23;;;4.90;;
1759;SDS011;877;46.266;20.062;2022-08-19T11:31:19;11.43;;;5.20;;
1759;SDS011;877;46.266;20.062;2022-08-19T11:36:49;7.00;;;4.60;;
1759;SDS011;877;46.266;20.062;2022-08-19T11:42:19;10.17;;;4.97;;
1759;SDS011;877;46.266;20.062;2022-08-19T11:48:07;12.53;;;4.83;;
1759;SDS011;877;46.266;20.062;2022-08-19T11:53:37;6.73;;;4.43;;
1759;SDS011;877;46.266;20.062;2022-08-19T11:59:07;6.93;;;5.17;;
1759;SDS011;877;46.266;20.062;2022-08-19T12:04:38;7.50;;;4.77;;
1759;SDS011;877;46.266;20.062;2022-08-19T12:10:08;5.67;;;4.57;;
1759;SDS011;877;46.266;20.062;2022-08-19T12:15:38;7.57;;;5.20;;
1759;SDS011;877;46.266;20.062;2022-08-19T12:21:09;12.57;;;5.60;;
1759;SDS011;877;46.266;20.062;2022-08-19T12:26:40;8.03;;;4.33;;
1759;SDS011;877;46.266;20.062;2022-08-19T12:32:09;10.70;;;5.80;;
1759;SDS011;877;46.266;20.062;2022-08-19T12:37:39;10.60;;;4.80;;
1759;SDS011;877;46.266;20.062;2022-08-19T12:43:10;9.80;;;4.70;;
1759;SDS011;877;46.266;20.062;2022-08-19T12:48:40;10.10;;;4.80;;
1759;SDS011;877;46.266;20.062;2022-08-19T12:54:11;7.50;;;4.80;;
1759;SDS011;877;46.266;20.062;2022-08-19T12:59:41;9.47;;;5.93;;
1759;SDS011;877;46.266;20.062;2022-08-19T13:05:13;8.03;;;4.40;;
1759;SDS011;877;46.266;20.062;2022-08-19T13:10:44;7.17;;;4.40;;
1759;SDS011;877;46.266;20.062;2022-08-19T13:16:15;10.90;;;5.27;;
1759;SDS011;877;46.266;20.062;2022-08-19T13:21:44;8.37;;;5.40;;
1759;SDS011;877;46.266;20.062;2022-08-19T13:27:14;9.17;;;4.50;;
1759;SDS011;877;46.266;20.062;2022-08-19T13:32:44;6.70;;;4.50;;
1759;SDS011;877;46.266;20.062;2022-08-19T13:38:32;10.70;;;4.40;;
1759;SDS011;877;46.266;20.062;2022-08-19T13:44:02;13.47;;;4.87;;
1759;SDS011;877;46.266;20.062;2022-08-19T13:49:33;10.20;;;4.90;;
1759;SDS011;877;46.266;20.062;2022-08-19T13:55:04;11.27;;;5.00;;
1759;SDS011;877;46.266;20.062;2022-08-19T14:00:36;9.90;;;4.07;;
1759;SDS011;877;46.266;20.062;2022-08-19T14:06:06;10.27;;;4.70;;
1759;SDS011;877;46.266;20.062;2022-08-19T14:11:36;11.80;;;4.60;;
1759;SDS011;877;46.266;20.062;2022-08-19T14:17:06;9.13;;;4.47;;
1759;SDS011;877;46.266;20.062;2022-08-19T14:22:37;7.40;;;4.20;;
1759;SDS011;877;46.266;20.062;2022-08-19T14:28:08;14.37;;;5.00;;
1759;SDS011;877;46.266;20.062;2022-08-19T14:33:37;13.00;;;5.03;;
1759;SDS011;877;46.266;20.062;2022-08-19T14:39:07;9.97;;;4.40;;
1759;SDS011;877;46.266;20.062;2022-08-19T14:44:38;8.43;;;4.87;;
1759;SDS011;877;46.266;20.062;2022-08-19T14:50:08;6.20;;;4.70;;
1759;SDS011;877;46.266;20.062;2022-08-19T14:55:40;13.63;;;5.10;;
1759;SDS011;877;46.266;20.062;2022-08-19T15:01:10;13.30;;;5.33;;
1759;SDS011;877;46.266;20.062;2022-08-19T15:06:40;12.40;;;5.47;;
1759;SDS011;877;46.266;20.062;2022-08-19T15:12:10;13.70;;;4.80;;
1759;SDS011;877;46.266;20.062;2022-08-19T15:17:40;8.07;;;4.27;;
1759;SDS011;877;46.266;20.062;2022-08-19T15:23:10;6.40;;;4.27;;
1759;SDS011;877;46.266;20.062;2022-08-19T15:28:40;16.70;;;5.17;;
1759;SDS011;877;46.266;20.062;2022-08-19T15:34:10;10.77;;;5.00;;
1759;SDS011;877;46.266;20.062;2022-08-19T15:39:40;30.53;;;5.07;;
1759;SDS011;877;46.266;20.062;2022-08-19T15:45:10;29.97;;;5.30;;
1759;SDS011;877;46.266;20.062;2022-08-19T15:50:40;33.23;;;5.73;;
1759;SDS011;877;46.266;20.062;2022-08-19T15:56:10;22.60;;;5.10;;
1759;SDS011;877;46.266;20.062;2022-08-19T16:01:39;18.37;;;5.00;;
1759;SDS011;877;46.266;20.062;2022-08-19T16:07:27;18.13;;;4.33;;
1759;SDS011;877;46.266;20.062;2022-08-19T16:12:57;20.10;;;4.43;;
1759;SDS011;877;46.266;20.062;2022-08-19T16:18:27;15.00;;;4.50;;
1759;SDS011;877;46.266;20.062;2022-08-19T16:24:03;14.97;;;4.00;;
1759;SDS011;877;46.266;20.062;2022-08-19T16:29:39;15.43;;;5.07;;
1759;SDS011;877;46.266;20.062;2022-08-19T16:35:08;15.23;;;4.10;;
1759;SDS011;877;46.266;20.062;2022-08-19T16:40:38;13.40;;;4.47;;
1759;SDS011;877;46.266;20.062;2022-08-19T16:46:08;17.33;;;4.60;;
1759;SDS011;877;46.266;20.062;2022-08-19T16:51:38;17.20;;;3.83;;
1759;SDS011;877;46.266;20.062;2022-08-19T16:57:07;12.40;;;5.00;;
1759;SDS011;877;46.266;20.062;2022-08-19T17:02:37;13.17;;;4.70;;
1759;SDS011;877;46.266;20.062;2022-08-19T17:08:07;20.60;;;4.90;;
1759;SDS011;877;46.266;20.062;2022-08-19T17:13:37;19.30;;;4.90;;
1759;SDS011;877;46.266;20.062;2022-08-19T17:19:06;14.17;;;5.80;;
1759;SDS011;877;46.266;20.062;2022-08-19T17:24:36;17.10;;;6.23;;
1759;SDS011;877;46.266;20.062;2022-08-19T17:30:12;18.70;;;6.47;;
1759;SDS011;877;46.266;20.062;2022-08-19T17:35:42;16.37;;;6.50;;
1759;SDS011;877;46.266;20.062;2022-08-19T17:41:12;12.63;;;6.73;;
1759;SDS011;877;46.266;20.062;2022-08-19T17:46:42;17.37;;;6.23;;
1759;SDS011;877;46.266;20.062;2022-08-19T17:52:14;19.03;;;5.83;;
1759;SDS011;877;46.266;20.062;2022-08-19T17:57:43;14.57;;;5.80;;
1759;SDS011;877;46.266;20.062;2022-08-19T18:03:13;19.43;;;6.10;;
1759;SDS011;877;46.266;20.062;2022-08-19T18:08:43;14.57;;;5.80;;
1759;SDS011;877;46.266;20.062;2022-08-19T18:14:13;14.90;;;4.93;;
1759;SDS011;877;46.266;20.062;2022-08-19T18:19:43;16.27;;;5.50;;
1759;SDS011;877;46.266;20.062;2022-08-19T18:25:18;14.53;;;4.93;;
1759;SDS011;877;46.266;20.062;2022-08-19T18:30:53;14.20;;;4.20;;
1759;SDS011;877;46.266;20.062;2022-08-19T18:36:23;32.27;;;6.37;;
1759;SDS011;877;46.266;20.062;2022-08-19T18:41:56;38.60;;;6.93;;
1759;SDS011;877;46.266;20.062;2022-08-19T18:47:44;37.30;;;5.90;;
1759;SDS011;877;46.266;20.062;2022-08-19T18:53:33;22.93;;;4.87;;
1759;SDS011;877;46.266;20.062;2022-08-19T18:59:02;18.40;;;4.40;;
1759;SDS011;877;46.266;20.062;2022-08-19T19:04:32;27.97;;;4.90;;
1759;SDS011;877;46.266;20.062;2022-08-19T19:10:06;13.70;;;3.97;;
1759;SDS011;877;46.266;20.062;2022-08-19T19:15:35;13.50;;;4.97;;
1759;SDS011;877;46.266;20.062;2022-08-19T19:21:07;12.57;;;4.47;;
1759;SDS011;877;46.266;20.062;2022-08-19T19:26:41;12.40;;;4.23;;
1759;SDS011;877;46.266;20.062;2022-08-19T19:32:20;12.50;;;6.27;;
1759;SDS011;877;46.266;20.062;2022-08-19T19:37:51;15.43;;;6.20;;
1759;SDS011;877;46.266;20.062;2022-08-19T19:43:20;13.10;;;4.70;;
1759;SDS011;877;46.266;20.062;2022-08-19T19:48:50;12.27;;;4.50;;
1759;SDS011;877;46.266;20.062;2022-08-19T19:54:20;10.97;;;3.87;;
1759;SDS011;877;46.266;20.062;2022-08-19T19:59:49;9.77;;;4.70;;
1759;SDS011;877;46.266;20.062;2022-08-19T20:05:19;11.70;;;4.30;;
1759;SDS011;877;46.266;20.062;2022-08-19T20:10:49;13.30;;;4.67;;
1759;SDS011;877;46.266;20.062;2022-08-19T20:16:19;12.20;;;4.77;;
1759;SDS011;877;46.266;20.062;2022-08-19T20:21:50;14.87;;;4.70;;
1759;SDS011;877;46.266;20.062;2022-08-19T20:27:19;13.30;;;4.20;;
1759;SDS011;877;46.266;20.062;2022-08-19T20:32:57;18.43;;;3.87;;
1759;SDS011;877;46.266;20.062;2022-08-19T20:38:27;9.60;;;4.00;;
1759;SDS011;877;46.266;20.062;2022-08-19T20:43:56;15.00;;;5.10;;
1759;SDS011;877;46.266;20.062;2022-08-19T20:49:27;15.37;;;5.67;;
1759;SDS011;877;46.266;20.062;2022-08-19T20:54:57;9.63;;;4.73;;
1759;SDS011;877;46.266;20.062;2022-08-19T21:00:26;8.07;;;4.17;;
1759;SDS011;877;46.266;20.062;2022-08-19T21:05:58;10.87;;;3.50;;
1759;SDS011;877;46.266;20.062;2022-08-19T21:11:27;11.83;;;4.10;;
1759;SDS011;877;46.266;20.062;2022-08-19T21:16:58;15.00;;;4.30;;
1759;SDS011;877;46.266;20.062;2022-08-19T21:22:28;7.13;;;3.93;;
1759;SDS011;877;46.266;20.062;2022-08-19T21:27:57;11.27;;;3.90;;
1759;SDS011;877;46.266;20.062;2022-08-19T21:33:27;10.00;;;4.20;;
1759;SDS011;877;46.266;20.062;2022-08-19T21:38:59;11.77;;;4.40;;
1759;SDS011;877;46.266;20.062;2022-08-19T21:44:28;11.40;;;3.90;;
1759;SDS011;877;46.266;20.062;2022-08-19T21:49:58;8.10;;;3.90;;
1759;SDS011;877;46.266;20.062;2022-08-19T21:55:28;14.17;;;3.93;;
1759;SDS011;877;46.266;20.062;2022-08-19T22:00:58;10.33;;;3.70;;
1759;SDS011;877;46.266;20.062;2022-08-19T22:06:28;6.97;;;3.43;;
1759;SDS011;877;46.266;20.062;2022-08-19T22:11:58;7.50;;;3.80;;
1759;SDS011;877;46.266;20.062;2022-08-19T22:17:27;8.17;;;3.70;;
1759;SDS011;877;46.266;20.062;2022-08-19T22:22:58;11.60;;;4.67;;
1759;SDS011;877;46.266;20.062;2022-08-19T22:28:28;7.80;;;3.60;;
1759;SDS011;877;46.266;20.062;2022-08-19T22:33:58;9.83;;;3.57;;
1759;SDS011;877;46.266;20.062;2022-08-19T22:39:29;9.70;;;4.50;;
1759;SDS011;877;46.266;20.062;2022-08-19T22:44:58;11.10;;;4.07;;
1759;SDS011;877;46.266;20.062;2022-08-19T22:50:28;6.67;;;4.13;;
1759;SDS011;877;46.266;20.062;2022-08-19T22:55:57;11.43;;;4.10;;
1759;SDS011;877;46.266;20.062;2022-08-19T23:01:27;6.40;;;3.17;;
1759;SDS011;877;46.266;20.062;2022-08-19T23:06:57;9.20;;;3.73;;
1759;SDS011;877;46.266;20.062;2022-08-19T23:12:27;7.53;;;3.50;;
1759;SDS011;877;46.266;20.062;2022-08-19T23:17:59;7.97;;;3.90;;
1759;SDS011;877;46.266;20.062;2022-08-19T23:23:28;9.00;;;3.43;;
1759;SDS011;877;46.266;20.062;2022-08-19T23:28:58;5.90;;;3.70;;
1759;SDS011;877;46.266;20.062;2022-08-19T23:34:46;8.97;;;3.47;;
1759;SDS011;877;46.266;20.062;2022-08-19T23:40:16;7.13;;;3.13;;
1759;SDS011;877;46.266;20.062;2022-08-19T23:45:49;8.33;;;3.70;;
1759;SDS011;877;46.266;20.062;2022-08-19T23:51:19;7.17;;;3.20;;
1759;SDS011;877;46.266;20.062;2022-08-19T23:56:48;6.53;;;3.40;;
